Time;durP1;ratioP1;P1;durP2;ratioP2;P2;SDS_P1;SDS_P2;PMS_P1;PMS_P2;Temp;Humidity;BMP_temperature;BMP_pressure;BME280_temperature;BME280_humidity;BME280_pressure;Samples;Min_cycle;Max_cycle;Signal;HPM_P1;HPM_P2
2022/06/03 00:02:27;;;;;;;;;;;;;;;17.46;100.00;99332.50;5074190;28;20009;-81
2022/06/03 00:05:20;;;;;;;;;;;;;;;17.43;100.00;99324.16;5045697;28;19994;-81
2022/06/03 00:08:33;;;;;;;;;;;;;;;16.98;100.00;99327.47;5045682;28;20028;-81
2022/06/03 00:11:25;;;;;;;;;;;;;;;17.05;100.00;99326.44;5045695;28;20045;-81
2022/06/03 00:14:12;;;;;;;;;;;;;;;17.03;100.00;99323.28;5039080;28;20328;-81
2022/06/03 00:17:07;;;;;;;;;;;;;;;17.14;100.00;99323.66;5038759;28;19932;-81
2022/06/03 00:20:12;;;;;;;;;;;;;;;17.00;100.00;99325.00;5048141;28;19924;-81
2022/06/03 00:23:10;;;;;;;;;;;;;;;17.19;100.00;99325.91;5025360;28;20024;-81
2022/06/03 00:26:06;;;;;;;;;;;;;;;16.89;100.00;99324.59;5039630;28;19945;-81
2022/06/03 00:29:10;;;;;;;;;;;;;;;16.95;100.00;99327.63;5025290;28;19968;-81
2022/06/03 00:31:59;;;;;;;;;;;;;;;17.20;100.00;99324.66;5024759;28;19932;-81
2022/06/03 00:34:59;;;;;;;;;;;;;;;17.09;100.00;99322.22;5019723;28;20279;-81
2022/06/03 00:37:53;;;;;;;;;;;;;;;17.19;100.00;99325.91;5030957;28;20446;-81
2022/06/03 00:40:58;;;;;;;;;;;;;;;17.05;100.00;99332.09;5019571;28;19932;-81
2022/06/03 00:43:48;;;;;;;;;;;;;;;16.81;100.00;99323.28;5028451;28;19925;-81
2022/06/03 00:46:33;;;;;;;;;;;;;;;16.68;100.00;99327.41;5053487;28;19936;-81
2022/06/03 00:49:26;;;;;;;;;;;;;;;16.49;100.00;99328.50;5025800;28;19932;-81
2022/06/03 00:52:42;;;;;;;;;;;;;;;16.54;100.00;99337.16;4999242;28;19997;-81
2022/06/03 00:55:34;;;;;;;;;;;;;;;16.13;100.00;99346.63;4999258;28;19932;-80
2022/06/03 00:58:28;;;;;;;;;;;;;;;15.99;100.00;99340.69;4985766;28;19975;-81
2022/06/03 01:01:23;;;;;;;;;;;;;;;16.43;100.00;99333.13;4980642;28;19926;-81
2022/06/03 01:04:18;;;;;;;;;;;;;;;16.63;100.00;99339.28;4966118;28;19933;-81
2022/06/03 01:07:14;;;;;;;;;;;;;;;16.76;100.00;99331.56;4998985;28;20105;-81
2022/06/03 01:10:36;;;;;;;;;;;;;;;16.79;100.00;99339.09;5000602;28;19936;-81
2022/06/03 01:13:39;;;;;;;;;;;;;;;16.82;100.00;99341.00;5010557;28;19926;-81
2022/06/03 01:16:44;;;;;;;;;;;;;;;16.84;100.00;99346.97;5013135;28;20459;-81
2022/06/03 01:19:39;;;;;;;;;;;;;;;16.52;100.00;99339.69;4998920;28;20031;-81
2022/06/03 01:22:30;;;;;;;;;;;;;;;16.72;100.00;99330.91;4999299;28;19956;-81
2022/06/03 01:25:18;;;;;;;;;;;;;;;16.58;100.00;99335.03;4998353;28;19933;-81
2022/06/03 01:28:04;;;;;;;;;;;;;;;16.03;100.00;99338.53;4984936;28;20427;-81
2022/06/03 01:31:22;;;;;;;;;;;;;;;16.40;100.00;99336.88;4999672;28;19925;-81
2022/06/03 01:34:07;;;;;;;;;;;;;;;16.24;100.00;99335.78;4985292;28;19932;-81
2022/06/03 01:37:00;;;;;;;;;;;;;;;16.32;100.00;99336.31;4984399;28;19932;-81
2022/06/03 01:40:06;;;;;;;;;;;;;;;16.34;100.00;99333.84;5003551;28;21299;-81
2022/06/03 01:43:00;;;;;;;;;;;;;;;16.27;100.00;99333.31;5003926;28;19951;-81
2022/06/03 01:46:11;;;;;;;;;;;;;;;16.12;100.00;99335.81;5037941;28;19925;-81
2022/06/03 01:48:59;;;;;;;;;;;;;;;16.14;100.00;99334.13;4992461;28;19926;-81
2022/06/03 01:52:04;;;;;;;;;;;;;;;16.15;100.00;99332.88;4979254;28;19932;-81
2022/06/03 01:55:17;;;;;;;;;;;;;;;16.07;100.00;99333.53;4992316;28;19930;-81
2022/06/03 01:58:05;;;;;;;;;;;;;;;15.88;100.00;99334.59;4970390;28;19965;-81
2022/06/03 02:01:43;;;;;;;;;;;;;;;15.71;100.00;99336.75;4953969;29;19927;-81
2022/06/03 02:04:35;;;;;;;;;;;;;;;15.76;100.00;99339.03;4953590;29;19970;-81
2022/06/03 02:07:39;;;;;;;;;;;;;;;15.98;100.00;99331.44;4954081;29;20017;-81
2022/06/03 02:10:47;;;;;;;;;;;;;;;16.03;100.00;99332.88;4885217;29;19927;-81
2022/06/03 02:14:03;;;;;;;;;;;;;;;16.15;100.00;99329.25;4865985;29;19928;-81
2022/06/03 02:17:17;;;;;;;;;;;;;;;16.05;100.00;99328.38;4878168;29;20620;-81
2022/06/03 02:20:34;;;;;;;;;;;;;;;15.80;100.00;99334.06;4822893;29;20262;-81
2022/06/03 02:23:51;;;;;;;;;;;;;;;15.88;100.00;99329.78;4833834;29;20026;-81
2022/06/03 02:26:53;;;;;;;;;;;;;;;16.06;100.00;99332.78;4851879;29;19928;-81
2022/06/03 02:33:16;;;;;;;;;;;;;;;15.85;100.00;99327.84;4853724;29;20044;-82
2022/06/03 02:36:05;;;;;;;;;;;;;;;15.70;100.00;99332.38;4853960;29;19936;-82
2022/06/03 02:39:18;;;;;;;;;;;;;;;15.16;100.00;99339.28;4848545;29;20640;-81
2022/06/03 02:42:36;;;;;;;;;;;;;;;15.31;100.00;99341.22;4819317;29;20419;-81
2022/06/03 02:45:38;;;;;;;;;;;;;;;14.82;100.00;99339.09;4806037;29;20477;-81
2022/06/03 02:48:30;;;;;;;;;;;;;;;15.24;100.00;99344.25;4820416;29;19960;-81
2022/06/03 02:51:20;;;;;;;;;;;;;;;15.60;100.00;99336.31;4886227;29;19934;-81
2022/06/03 02:54:29;;;;;;;;;;;;;;;15.57;100.00;99337.22;4912628;29;20022;-80
2022/06/03 02:57:37;;;;;;;;;;;;;;;15.68;100.00;99336.88;4905390;29;19928;-80
2022/06/03 03:00:36;;;;;;;;;;;;;;;15.81;100.00;99335.63;4897509;29;20510;-81
2022/06/03 03:03:31;;;;;;;;;;;;;;;15.87;100.00;99342.25;4894518;29;19934;-81
2022/06/03 03:06:30;;;;;;;;;;;;;;;15.87;100.00;99331.00;4903746;29;19935;-81
2022/06/03 03:09:21;;;;;;;;;;;;;;;15.99;100.00;99329.41;4895622;29;19934;-81
2022/06/03 03:12:16;;;;;;;;;;;;;;;15.49;100.00;99335.09;4918012;29;19938;-80
2022/06/03 03:15:05;;;;;;;;;;;;;;;15.70;100.00;99328.75;4918631;29;19971;-80
2022/06/03 03:18:18;;;;;;;;;;;;;;;15.42;100.00;99327.63;4890786;29;20401;-81
2022/06/03 03:21:26;;;;;;;;;;;;;;;15.17;100.00;99327.59;4918036;29;19928;-80
2022/06/03 03:24:44;;;;;;;;;;;;;;;15.17;100.00;99327.59;4883398;29;20010;-82
2022/06/03 03:27:52;;;;;;;;;;;;;;;15.50;100.00;99331.81;4896176;29;19927;-82
2022/06/03 03:30:41;;;;;;;;;;;;;;;15.34;100.00;99329.06;4885615;29;19959;-81
2022/06/03 03:33:22;;;;;;;;;;;;;;;15.26;100.00;99324.09;4899334;29;19935;-81
2022/06/03 03:35:57;;;;;;;;;;;;;;;15.27;100.00;99323.66;4899013;29;19928;-81
2022/06/03 03:38:56;;;;;;;;;;;;;;;15.26;100.00;99322.09;4912799;29;19993;-81
2022/06/03 03:41:58;;;;;;;;;;;;;;;15.45;100.00;99315.47;4898914;29;20053;-81
2022/06/03 03:44:55;;;;;;;;;;;;;;;14.94;100.00;99321.44;4812647;29;19929;-81
2022/06/03 03:47:49;;;;;;;;;;;;;;;15.05;100.00;99322.72;4823229;29;19936;-81
2022/06/03 03:50:58;;;;;;;;;;;;;;;15.28;100.00;99319.59;4824758;29;20081;-81
2022/06/03 03:54:14;;;;;;;;;;;;;;;15.37;100.00;99321.75;4747691;30;19934;-81
2022/06/03 03:57:17;;;;;;;;;;;;;;;14.93;100.00;99337.56;4770874;30;19922;-80
2022/06/03 04:00:31;;;;;;;;;;;;;;;14.87;100.00;99342.16;4801521;29;20047;-81
2022/06/03 04:03:26;;;;;;;;;;;;;;;15.20;100.00;99337.16;4824036;29;20006;-80
2022/06/03 04:06:12;;;;;;;;;;;;;;;15.01;100.00;99341.72;4879102;29;20343;-81
2022/06/03 04:09:13;;;;;;;;;;;;;;;14.92;100.00;99335.97;4879813;29;20459;-81
2022/06/03 04:12:34;;;;;;;;;;;;;;;15.26;100.00;99341.78;4879689;29;19939;-81
2022/06/03 04:15:34;;;;;;;;;;;;;;;15.52;100.00;99345.44;4860754;29;20319;-81
2022/06/03 04:18:29;;;;;;;;;;;;;;;15.61;100.00;99332.28;4861082;29;19935;-81
2022/06/03 04:21:33;;;;;;;;;;;;;;;15.69;100.00;99333.59;4860117;29;19995;-81
2022/06/03 04:24:25;;;;;;;;;;;;;;;15.31;100.00;99326.38;4917177;29;20370;-81
2022/06/03 04:27:50;;;;;;;;;;;;;;;15.25;100.00;99328.94;4932231;29;19993;-79
2022/06/03 04:30:42;;;;;;;;;;;;;;;15.33;100.00;99333.13;4967343;28;19953;-81
2022/06/03 04:33:46;;;;;;;;;;;;;;;15.45;100.00;99346.44;5020092;28;20308;-81
2022/06/03 04:36:36;;;;;;;;;;;;;;;15.50;100.00;99343.06;4931704;29;19927;-81
2022/06/03 04:39:22;;;;;;;;;;;;;;;15.54;100.00;99326.84;4916588;29;19982;-81
2022/06/03 04:42:21;;;;;;;;;;;;;;;15.31;100.00;99335.59;4922380;29;20327;-81
2022/06/03 04:45:16;;;;;;;;;;;;;;;15.38;100.00;99340.25;4904063;29;19935;-81
2022/06/03 04:48:13;;;;;;;;;;;;;;;15.11;100.00;99337.03;4894321;29;19944;-81
2022/06/03 04:51:19;;;;;;;;;;;;;;;15.16;100.00;99334.44;4916498;29;20527;-81
2022/06/03 04:54:06;;;;;;;;;;;;;;;15.11;100.00;99343.44;4860170;29;20093;-81
2022/06/03 04:57:07;;;;;;;;;;;;;;;14.84;100.00;99339.44;4847238;29;20437;-81
2022/06/03 05:00:26;;;;;;;;;;;;;;;14.55;100.00;99345.06;4823733;29;20366;-81
2022/06/03 05:03:23;;;;;;;;;;;;;;;14.99;100.00;99341.41;4815523;29;19928;-81
2022/06/03 05:06:06;;;;;;;;;;;;;;;15.25;100.00;99336.59;4813870;29;19928;-81
2022/06/03 05:09:14;;;;;;;;;;;;;;;15.45;100.00;99340.81;4823695;29;19975;-81
2022/06/03 05:12:33;;;;;;;;;;;;;;;15.37;100.00;99338.66;4797751;29;20202;-81
2022/06/03 05:15:30;;;;;;;;;;;;;;;15.02;100.00;99340.50;4873316;29;20041;-81
2022/06/03 05:18:18;;;;;;;;;;;;;;;14.96;100.00;99347.94;4859586;29;19928;-81
2022/06/03 05:21:52;;;;;;;;;;;;;;;14.99;100.00;99349.84;4805329;29;19929;-81
2022/06/03 05:24:37;;;;;;;;;;;;;;;15.18;100.00;99348.06;4805774;29;20086;-81
2022/06/03 05:27:45;;;;;;;;;;;;;;;14.61;100.00;99350.94;4792677;29;19929;-81
2022/06/03 05:30:48;;;;;;;;;;;;;;;14.38;100.00;99360.41;4800984;29;19991;-81
2022/06/03 05:34:19;;;;;;;;;;;;;;;14.03;100.00;99361.28;4869244;29;19928;-81
2022/06/03 05:37:37;;;;;;;;;;;;;;;13.78;100.00;99375.91;4870911;29;19936;-81
2022/06/03 05:40:28;;;;;;;;;;;;;;;14.05;100.00;99370.84;4846740;29;19964;-81
2022/06/03 05:43:36;;;;;;;;;;;;;;;13.80;100.00;99372.66;4859193;29;20393;-81
2022/06/03 05:46:48;;;;;;;;;;;;;;;13.86;100.00;99365.31;4872825;29;20423;-81
2022/06/03 05:49:52;;;;;;;;;;;;;;;13.91;100.00;99367.59;4872169;29;19929;-81
2022/06/03 05:52:48;;;;;;;;;;;;;;;13.85;100.00;99366.53;4853688;29;19935;-81
2022/06/03 05:55:57;;;;;;;;;;;;;;;13.81;100.00;99368.66;4885660;29;19950;-81
2022/06/03 05:58:52;;;;;;;;;;;;;;;13.84;100.00;99365.75;4878132;29;19996;-81
2022/06/03 06:02:06;;;;;;;;;;;;;;;13.92;100.00;99363.53;4853369;29;19934;-81
2022/06/03 06:04:51;;;;;;;;;;;;;;;13.96;100.00;99369.88;4876609;29;19944;-81
2022/06/03 06:07:21;;;;;;;;;;;;;;;14.03;100.00;99375.31;4896544;29;19927;-81
2022/06/03 06:09:50;;;;;;;;;;;;;;;14.09;100.00;99385.59;4896426;29;19927;-81
2022/06/03 06:12:20;;;;;;;;;;;;;;;14.42;100.00;99381.56;4866329;29;19984;-81
2022/06/03 06:15:30;;;;;;;;;;;;;;;14.62;100.00;99386.25;4880949;29;19999;-81
2022/06/03 06:18:42;;;;;;;;;;;;;;;14.41;100.00;99373.56;4881522;29;20428;-81
2022/06/03 06:22:03;;;;;;;;;;;;;;;14.95;100.00;99390.56;4868102;29;20597;-81
2022/06/03 06:25:11;;;;;;;;;;;;;;;14.89;100.00;99381.88;4891349;29;20520;-81
2022/06/03 06:27:57;;;;;;;;;;;;;;;15.01;100.00;99386.75;4905443;29;20014;-81
2022/06/03 06:30:30;;;;;;;;;;;;;;;14.94;100.00;99384.16;4936701;28;19925;-81
2022/06/03 06:33:24;;;;;;;;;;;;;;;15.15;100.00;99389.16;4969365;28;20278;-81
2022/06/03 06:36:31;;;;;;;;;;;;;;;15.49;100.00;99380.13;4982823;28;19977;-81
2022/06/03 06:39:45;;;;;;;;;;;;;;;15.36;100.00;99371.63;4981963;28;19932;-81
2022/06/03 06:42:43;;;;;;;;;;;;;;;14.94;100.00;99388.97;4996048;28;20065;-81
2022/06/03 06:45:42;;;;;;;;;;;;;;;14.80;100.00;99392.22;4937832;29;20002;-81
2022/06/03 06:48:37;;;;;;;;;;;;;;;14.83;100.00;99394.91;4937706;29;19927;-81
2022/06/03 06:51:46;;;;;;;;;;;;;;;14.81;100.00;99388.94;4929809;28;20026;-81
2022/06/03 06:54:39;;;;;;;;;;;;;;;14.75;100.00;99392.75;4963151;28;19927;-81
2022/06/03 06:57:33;;;;;;;;;;;;;;;14.94;100.00;99384.16;4960565;28;19926;-81
2022/06/03 07:00:36;;;;;;;;;;;;;;;15.04;100.00;99388.66;4962353;28;20416;-81
2022/06/03 07:03:43;;;;;;;;;;;;;;;15.15;100.00;99394.78;4962620;28;19926;-81
2022/06/03 07:06:40;;;;;;;;;;;;;;;15.51;100.00;99388.94;4962677;28;20110;-80
2022/06/03 07:09:10;;;;;;;;;;;;;;;15.76;100.00;99384.09;4959710;28;19926;-80
2022/06/03 07:12:15;;;;;;;;;;;;;;;15.77;100.00;99380.03;4971295;28;19926;-80
2022/06/03 07:15:09;;;;;;;;;;;;;;;15.94;100.00;99384.31;4946771;28;19926;-80
2022/06/03 07:21:07;;;;;;;;;;;;;;;16.13;100.00;99380.44;5001020;28;20396;-80
2022/06/03 07:23:56;;;;;;;;;;;;;;;15.82;100.00;99387.13;5014828;28;19975;-80
2022/06/03 07:26:47;;;;;;;;;;;;;;;16.45;100.00;99385.03;5030446;28;19987;-80
2022/06/03 07:29:41;;;;;;;;;;;;;;;16.47;100.00;99376.13;5001737;28;19934;-82
2022/06/03 07:32:22;;;;;;;;;;;;;;;17.50;100.00;99380.38;5015011;28;19925;-81
2022/06/03 07:34:51;;;;;;;;;;;;;;;18.05;100.00;99376.56;5000947;28;20384;-81
2022/06/03 07:37:54;;;;;;;;;;;;;;;19.93;100.00;99376.19;5031079;28;20381;-81
2022/06/03 07:41:05;;;;;;;;;;;;;;;20.66;100.00;99358.25;5008254;28;20019;-84
2022/06/03 07:43:56;;;;;;;;;;;;;;;20.78;100.00;99348.69;5019333;28;19932;-85
2022/06/03 07:47:03;;;;;;;;;;;;;;;20.79;100.00;99346.63;5021648;28;20399;-86
2022/06/03 07:50:06;;;;;;;;;;;;;;;21.92;100.00;99342.00;4962112;28;19926;-86
2022/06/03 07:52:59;;;;;;;;;;;;;;;22.41;100.00;99339.13;4974796;28;19968;-84
2022/06/03 07:55:30;;;;;;;;;;;;;;;24.00;100.00;99329.94;4956135;28;19997;-82
2022/06/03 07:58:17;;;;;;;;;;;;;;;24.71;100.00;99341.00;4955510;29;20018;-84
2022/06/03 08:01:05;;;;;;;;;;;;;;;25.31;100.00;99328.94;4940575;29;19934;-85
2022/06/03 08:03:35;;;;;;;;;;;;;;;25.40;100.00;99319.38;4939468;29;19938;-85
2022/06/03 08:06:27;;;;;;;;;;;;;;;25.10;100.00;99327.59;4949573;28;20381;-84
2022/06/03 08:12:07;;;;;;;;;;;;;;;24.16;100.00;99334.94;4954961;28;20048;-80
2022/06/03 08:14:50;;;;;;;;;;;;;;;24.43;100.00;99328.63;4955248;29;19926;-80
2022/06/03 08:17:44;;;;;;;;;;;;;;;25.04;100.00;99326.81;4940147;29;19962;-81
2022/06/03 08:20:32;;;;;;;;;;;;;;;25.10;100.00;99330.47;4925091;28;19937;-82
2022/06/03 08:23:37;;;;;;;;;;;;;;;24.32;100.00;99325.72;4950049;28;19938;-82
2022/06/03 08:27:40;;;;;;;;;;;;;;;24.93;100.00;99337.44;5099536;27;19927;-83
2022/06/03 08:30:29;;;;;;;;;;;;;;;25.38;100.00;99328.47;5058456;28;19924;-82
2022/06/03 08:33:16;;;;;;;;;;;;;;;25.86;100.00;99331.09;5046458;28;19978;-87
2022/06/03 08:36:06;;;;;;;;;;;;;;;26.82;100.00;99328.28;5031107;28;19925;-86
2022/06/03 08:39:15;;;;;;;;;;;;;;;26.41;100.00;99328.16;5010578;28;19930;-86
2022/06/03 08:42:06;;;;;;;;;;;;;;;26.23;100.00;99329.50;5014358;28;20388;-86
2022/06/03 08:44:53;;;;;;;;;;;;;;;25.65;100.00;99324.06;5012355;28;19929;-88
2022/06/03 08:47:53;;;;;;;;;;;;;;;25.29;100.00;99325.84;5012898;28;20329;-86
2022/06/03 08:50:34;;;;;;;;;;;;;;;25.92;100.00;99344.09;5007686;28;20304;-88
2022/06/03 08:54:06;;;;;;;;;;;;;;;25.80;100.00;99336.81;4998678;28;19933;-88
2022/06/03 08:56:54;;;;;;;;;;;;;;;26.19;100.00;99340.44;4978380;28;20008;-88
2022/06/03 08:59:39;;;;;;;;;;;;;;;25.42;100.00;99342.50;5015239;28;19975;-88
2022/06/03 09:02:23;;;;;;;;;;;;;;;25.59;100.00;99344.09;4988512;28;19925;-88
2022/06/03 09:05:27;;;;;;;;;;;;;;;24.62;100.00;99347.69;4968770;28;20039;-87
2022/06/03 09:08:17;;;;;;;;;;;;;;;25.72;100.00;99347.22;5000188;28;19926;-87
2022/06/03 09:11:18;;;;;;;;;;;;;;;25.29;100.00;99337.28;4996870;28;20159;-86
2022/06/03 09:14:12;;;;;;;;;;;;;;;25.76;100.00;99336.31;4984606;28;19933;-87
2022/06/03 09:16:56;;;;;;;;;;;;;;;24.67;100.00;99337.63;5035012;28;19930;-88
2022/06/03 09:19:39;;;;;;;;;;;;;;;25.16;100.00;99341.94;5041954;28;19925;-88
2022/06/03 09:22:32;;;;;;;;;;;;;;;23.63;100.00;99354.78;5036705;28;19951;-87
2022/06/03 09:25:24;;;;;;;;;;;;;;;22.61;100.00;99353.38;5048345;28;19924;-86
2022/06/03 09:28:06;;;;;;;;;;;;;;;22.46;100.00;99357.53;5064504;28;19925;-87
2022/06/03 09:31:10;;;;;;;;;;;;;;;22.86;100.00;99351.84;5065992;28;19928;-89
2022/06/03 09:33:44;;;;;;;;;;;;;;;23.37;100.00;99368.25;5070864;28;19931;-88
2022/06/03 09:36:43;;;;;;;;;;;;;;;23.62;100.00;99361.75;5045175;28;19986;-88
2022/06/03 09:39:18;;;;;;;;;;;;;;;23.72;100.00;99366.75;5021883;28;19931;-89
2022/06/03 09:42:11;;;;;;;;;;;;;;;24.15;100.00;99365.59;5040554;28;19932;-88
2022/06/03 09:45:04;;;;;;;;;;;;;;;23.63;100.00;99357.63;5053200;28;19931;-87
2022/06/03 09:47:54;;;;;;;;;;;;;;;22.23;100.00;99356.47;5051097;28;20319;-87
2022/06/03 09:50:45;;;;;;;;;;;;;;;21.89;100.00;99360.06;5055361;28;19924;-88
2022/06/03 09:53:40;;;;;;;;;;;;;;;22.67;100.00;99371.31;5070259;28;19924;-86
2022/06/03 09:56:32;;;;;;;;;;;;;;;22.29;100.00;99363.00;5073501;28;19938;-86
2022/06/03 09:59:13;;;;;;;;;;;;;;;22.59;100.00;99352.31;5047452;28;19928;-87
2022/06/03 10:01:43;;;;;;;;;;;;;;;21.50;100.00;99369.19;5028012;28;20387;-86
2022/06/03 10:04:12;;;;;;;;;;;;;;;21.45;100.00;99369.88;5057557;28;19924;-87
2022/06/03 10:07:00;;;;;;;;;;;;;;;21.86;100.00;99360.25;5089251;28;19924;-86
2022/06/03 10:13:13;;;;;;;;;;;;;;;21.37;100.00;99363.81;5056342;28;19924;-88
2022/06/03 10:16:00;;;;;;;;;;;;;;;21.21;100.00;99359.38;5038535;28;19932;-88
2022/06/03 10:18:49;;;;;;;;;;;;;;;20.97;100.00;99357.88;5065757;28;20275;-89
2022/06/03 10:21:20;;;;;;;;;;;;;;;21.21;100.00;99358.59;5055477;28;19924;-87
2022/06/03 10:23:57;;;;;;;;;;;;;;;21.13;100.00;99354.56;5035657;28;19924;-86
2022/06/03 10:27:05;;;;;;;;;;;;;;;20.72;100.00;99364.06;5052670;28;19984;-87
2022/06/03 10:29:50;;;;;;;;;;;;;;;20.43;100.00;99359.03;5076383;28;19955;-87
2022/06/03 10:32:29;;;;;;;;;;;;;;;21.05;100.00;99376.88;5064212;28;19928;-87
2022/06/03 10:35:34;;;;;;;;;;;;;;;20.70;100.00;99344.69;5067302;28;20058;-83
2022/06/03 10:38:03;;;;;;;;;;;;;;;19.96;100.00;99346.84;5077141;28;19927;-85
2022/06/03 10:40:52;;;;;;;;;;;;;;;20.93;100.00;99346.66;5095316;28;19932;-82
2022/06/03 10:43:41;;;;;;;;;;;;;;;20.70;100.00;99343.88;5095984;28;19928;-84
2022/06/03 10:46:24;;;;;;;;;;;;;;;20.93;100.00;99351.59;5075199;28;20288;-84
2022/06/03 10:49:19;;;;;;;;;;;;;;;20.65;100.00;99336.03;5089082;28;19935;-85
2022/06/03 11:01:42;;;;;;;;;;;;;;;21.04;100.00;99343.28;5019399;28;19972;-86
2022/06/03 11:04:37;;;;;;;;;;;;;;;21.01;100.00;99338.56;5009787;28;19934;-83
2022/06/03 11:07:30;;;;;;;;;;;;;;;20.86;100.00;99352.72;4995230;28;19925;-86
2022/06/03 11:10:00;;;;;;;;;;;;;;;20.97;100.00;99353.00;4974021;28;21028;-86
2022/06/03 11:12:59;;;;;;;;;;;;;;;20.94;100.00;99333.25;4991391;28;19926;-85
2022/06/03 11:15:58;;;;;;;;;;;;;;;21.02;100.00;99332.41;4976867;28;19977;-84
2022/06/03 11:18:46;;;;;;;;;;;;;;;21.23;100.00;99341.84;4959076;28;20275;-86
2022/06/03 11:21:42;;;;;;;;;;;;;;;21.03;100.00;99336.84;4959468;28;19926;-85
2022/06/03 11:24:09;;;;;;;;;;;;;;;20.89;100.00;99345.28;4925743;28;20704;-84
2022/06/03 11:26:43;;;;;;;;;;;;;;;20.78;100.00;99353.59;4981871;28;19936;-83
2022/06/03 11:29:38;;;;;;;;;;;;;;;20.87;100.00;99347.84;5034433;28;19925;-85
2022/06/03 11:32:08;;;;;;;;;;;;;;;21.32;100.00;99338.91;5008482;28;19951;-78
2022/06/03 11:35:08;;;;;;;;;;;;;;;21.61;100.00;99350.28;5020363;28;20020;-78
2022/06/03 11:37:56;;;;;;;;;;;;;;;21.51;100.00;99351.63;5024621;28;19936;-77
2022/06/03 11:41:02;;;;;;;;;;;;;;;20.13;100.00;99353.75;5016325;28;19979;-78
2022/06/03 11:44:11;;;;;;;;;;;;;;;20.91;100.00;99365.47;5027667;28;19947;-78
2022/06/03 11:47:00;;;;;;;;;;;;;;;20.40;100.00;99359.25;5028162;28;20010;-78
2022/06/03 11:49:33;;;;;;;;;;;;;;;20.91;100.00;99362.63;5035950;28;19929;-78
2022/06/03 11:52:29;;;;;;;;;;;;;;;21.36;100.00;99362.22;5032777;28;19924;-78
2022/06/03 11:55:20;;;;;;;;;;;;;;;21.13;100.00;99357.41;5034558;28;19932;-78
2022/06/03 11:58:17;;;;;;;;;;;;;;;21.05;100.00;99364.75;5056331;28;20018;-79
2022/06/03 12:01:17;;;;;;;;;;;;;;;21.52;100.00;99375.16;5039954;28;19924;-78
2022/06/03 12:04:15;;;;;;;;;;;;;;;21.51;100.00;99357.31;5070380;28;19932;-78
2022/06/03 12:07:09;;;;;;;;;;;;;;;21.39;100.00;99369.78;5057537;28;19968;-82
2022/06/03 12:10:07;;;;;;;;;;;;;;;21.86;100.00;99360.25;5057885;28;19928;-81
2022/06/03 12:13:15;;;;;;;;;;;;;;;21.71;100.00;99360.25;5074409;28;19983;-82
2022/06/03 12:16:16;;;;;;;;;;;;;;;21.26;100.00;99364.38;5019554;28;19929;-81
2022/06/03 12:19:39;;;;;;;;;;;;;;;21.35;100.00;99349.31;4962147;28;19927;-82
2022/06/03 12:22:30;;;;;;;;;;;;;;;21.16;100.00;99357.22;4960094;28;20342;-82
2022/06/03 12:25:31;;;;;;;;;;;;;;;21.47;100.00;99373.81;4941957;29;20038;-82
2022/06/03 12:28:39;;;;;;;;;;;;;;;21.25;100.00;99368.50;4921195;29;19934;-80
2022/06/03 12:31:33;;;;;;;;;;;;;;;21.36;100.00;99356.53;4954051;29;20337;-83
2022/06/03 12:34:22;;;;;;;;;;;;;;;21.65;100.00;99356.53;4940562;29;19934;-81
2022/06/03 12:37:26;;;;;;;;;;;;;;;21.48;100.00;99364.00;4886185;29;20431;-82
2022/06/03 12:40:21;;;;;;;;;;;;;;;21.45;100.00;99367.81;4883245;29;19935;-82
2022/06/03 12:43:21;;;;;;;;;;;;;;;21.54;100.00;99366.94;4876808;29;19934;-84
2022/06/03 12:46:08;;;;;;;;;;;;;;;21.82;100.00;99368.22;4869539;29;20438;-86
2022/06/03 12:49:18;;;;;;;;;;;;;;;21.49;100.00;99354.22;4863508;29;20384;-85
2022/06/03 12:52:08;;;;;;;;;;;;;;;21.36;100.00;99362.22;4875008;29;20020;-85
2022/06/03 12:54:56;;;;;;;;;;;;;;;21.66;100.00;99374.38;4935390;29;19938;-84
2022/06/03 12:57:47;;;;;;;;;;;;;;;21.89;100.00;99362.91;4918338;29;19930;-84
2022/06/03 13:00:36;;;;;;;;;;;;;;;21.88;100.00;99375.56;4931454;29;20378;-84
2022/06/03 13:03:40;;;;;;;;;;;;;;;21.20;100.00;99354.19;4875008;29;20677;-85
2022/06/03 13:06:27;;;;;;;;;;;;;;;21.42;100.00;99371.63;4886751;29;19934;-83
2022/06/03 13:09:37;;;;;;;;;;;;;;;21.91;100.00;99374.59;4888954;29;19928;-83
2022/06/03 13:12:27;;;;;;;;;;;;;;;20.98;100.00;99371.59;4911719;29;19935;-80
2022/06/03 13:15:17;;;;;;;;;;;;;;;21.24;100.00;99368.97;4876536;29;19928;-79
2022/06/03 13:18:10;;;;;;;;;;;;;;;21.20;100.00;99366.31;4876613;29;19935;-79
2022/06/03 13:21:00;;;;;;;;;;;;;;;21.51;100.00;99365.84;4847406;29;20332;-79
2022/06/03 13:23:49;;;;;;;;;;;;;;;21.83;100.00;99378.31;4866257;29;19952;-79
2022/06/03 13:26:37;;;;;;;;;;;;;;;21.49;100.00;99376.94;4955076;29;19933;-79
2022/06/03 13:29:41;;;;;;;;;;;;;;;21.41;100.00;99381.44;4955595;29;20291;-79
2022/06/03 13:32:27;;;;;;;;;;;;;;;21.16;100.00;99382.00;4955496;29;20062;-79
2022/06/03 13:35:28;;;;;;;;;;;;;;;21.36;100.00;99384.97;4912023;29;19931;-79
2022/06/03 13:38:24;;;;;;;;;;;;;;;21.47;100.00;99390.84;4879549;29;19975;-79
2022/06/03 13:44:36;;;;;;;;;;;;;;;21.80;100.00;99380.09;4861170;29;20324;-79
2022/06/03 13:47:26;;;;;;;;;;;;;;;21.63;100.00;99375.38;4894814;29;19934;-79
2022/06/03 13:50:26;;;;;;;;;;;;;;;20.76;100.00;99387.38;4879299;29;20487;-79
2022/06/03 13:53:12;;;;;;;;;;;;;;;21.07;100.00;99394.25;4879326;29;19934;-79
2022/06/03 13:56:06;;;;;;;;;;;;;;;20.93;100.00;99397.03;4879223;29;20076;-79
2022/06/03 13:58:52;;;;;;;;;;;;;;;21.33;100.00;99386.72;4879086;29;19967;-79
2022/06/03 14:01:53;;;;;;;;;;;;;;;21.59;100.00;99398.31;4897925;29;20014;-80
2022/06/03 14:04:59;;;;;;;;;;;;;;;21.38;100.00;99388.91;4903591;29;19934;-80
2022/06/03 14:08:25;;;;;;;;;;;;;;;21.46;100.00;99385.66;4916576;29;19935;-79
2022/06/03 14:11:09;;;;;;;;;;;;;;;20.81;100.00;99401.66;4900805;29;19926;-79
2022/06/03 14:13:58;;;;;;;;;;;;;;;20.68;100.00;99403.19;4950131;29;19972;-79
2022/06/03 14:16:43;;;;;;;;;;;;;;;21.13;100.00;99411.38;4971812;28;20433;-79
2022/06/03 14:19:35;;;;;;;;;;;;;;;21.01;100.00;99410.38;4960860;28;19933;-83
2022/06/03 14:22:35;;;;;;;;;;;;;;;20.81;100.00;99398.84;4962531;28;19932;-81
2022/06/03 14:25:30;;;;;;;;;;;;;;;21.06;100.00;99404.03;4968313;28;19933;-83
2022/06/03 14:28:26;;;;;;;;;;;;;;;20.94;100.00;99409.94;5000570;28;20035;-84
2022/06/03 14:31:35;;;;;;;;;;;;;;;20.54;100.00;99409.63;4991936;28;19933;-84
2022/06/03 14:34:42;;;;;;;;;;;;;;;20.93;100.00;99408.38;4935735;29;20573;-85
2022/06/03 14:37:34;;;;;;;;;;;;;;;21.39;100.00;99410.34;4926135;29;19933;-81
2022/06/03 14:40:27;;;;;;;;;;;;;;;21.14;100.00;99419.41;4945866;28;20108;-81
2022/06/03 14:43:16;;;;;;;;;;;;;;;20.89;100.00;99413.44;4951163;28;19934;-81
2022/06/03 14:46:07;;;;;;;;;;;;;;;20.85;100.00;99419.34;4967401;28;19993;-80
2022/06/03 14:48:55;;;;;;;;;;;;;;;21.08;100.00;99423.44;4953854;28;19933;-80
2022/06/03 14:51:47;;;;;;;;;;;;;;;20.86;100.00;99420.91;4954108;28;20790;-80
2022/06/03 14:54:38;;;;;;;;;;;;;;;20.95;100.00;99428.56;4950439;29;20277;-81
2022/06/03 14:57:34;;;;;;;;;;;;;;;20.58;100.00;99432.94;4953651;29;19933;-80
2022/06/03 15:00:26;;;;;;;;;;;;;;;20.75;100.00;99437.69;4940849;29;19934;-81
2022/06/03 15:03:38;;;;;;;;;;;;;;;20.68;100.00;99428.75;4954648;29;19937;-82
2022/06/03 15:06:31;;;;;;;;;;;;;;;20.01;100.00;99431.31;5003609;28;19932;-82
2022/06/03 15:09:26;;;;;;;;;;;;;;;20.06;100.00;99436.28;5014490;28;20518;-83
2022/06/03 15:12:23;;;;;;;;;;;;;;;20.31;100.00;99433.09;5091852;28;19943;-81
2022/06/03 15:15:32;;;;;;;;;;;;;;;19.23;100.00;99437.75;5012535;28;19990;-84
2022/06/03 15:18:30;;;;;;;;;;;;;;;20.47;100.00;99444.81;5031303;28;19932;-85
2022/06/03 15:21:22;;;;;;;;;;;;;;;20.46;100.00;99431.09;5017949;28;20615;-85
2022/06/03 15:24:12;;;;;;;;;;;;;;;20.23;100.00;99443.19;5027111;28;19932;-84
2022/06/03 15:26:58;;;;;;;;;;;;;;;20.03;100.00;99442.94;5014049;28;19971;-84
2022/06/03 15:29:44;;;;;;;;;;;;;;;19.79;100.00;99444.91;5016100;28;20397;-84